createdAt,value
2023-04-03T00:00:46.429Z,603.0000
2023-04-03T00:01:48.837Z,605.0000
2023-04-03T00:02:51.367Z,603.0000
2023-04-03T00:03:51.458Z,606.0000
2023-04-03T00:04:53.759Z,607.0000
2023-04-03T00:05:56.149Z,606.0000
2023-04-03T00:06:56.362Z,611.0000
2023-04-03T00:07:58.854Z,605.0000
2023-04-03T00:09:01.059Z,603.0000
2023-04-03T00:10:03.384Z,606.0000
2023-04-03T00:11:05.712Z,602.0000
2023-04-03T00:12:08.036Z,602.0000
2023-04-03T00:13:10.542Z,601.0000
2023-04-03T00:14:12.724Z,595.0000
2023-04-03T00:15:15.059Z,594.0000
2023-04-03T00:16:15.273Z,593.0000
2023-04-03T00:17:17.595Z,588.0000
2023-04-03T00:18:19.947Z,594.0000
2023-04-03T00:19:22.265Z,594.0000
2023-04-03T00:20:24.603Z,594.0000
2023-04-03T00:21:26.938Z,592.0000
2023-04-03T00:22:29.264Z,595.0000
2023-04-03T00:23:31.614Z,594.0000
2023-04-03T00:24:33.905Z,595.0000
2023-04-03T00:25:34.096Z,594.0000
2023-04-03T00:26:36.429Z,595.0000
2023-04-03T00:27:38.784Z,591.0000
2023-04-03T00:28:41.118Z,594.0000
2023-04-03T00:29:43.414Z,593.0000
2023-04-03T00:30:45.736Z,599.0000
2023-04-03T00:31:48.069Z,595.0000
2023-04-03T00:34:20.705Z,579.0000
2023-04-03T00:35:22.876Z,577.0000
2023-04-03T00:36:25.152Z,576.0000
2023-04-03T00:37:27.260Z,576.0000
2023-04-03T00:38:29.490Z,573.0000
2023-04-03T00:39:31.796Z,576.0000
2023-04-03T00:40:31.872Z,575.0000
2023-04-03T00:41:34.111Z,575.0000
2023-04-03T00:42:36.369Z,575.0000
2023-04-03T00:43:38.688Z,577.0000
2023-04-03T00:44:41.084Z,575.0000
2023-04-03T00:45:43.234Z,572.0000
2023-04-03T00:46:45.591Z,575.0000
2023-04-03T00:47:47.794Z,574.0000
2023-04-03T00:48:47.902Z,576.0000
2023-04-03T00:49:50.278Z,573.0000
2023-04-03T00:50:52.470Z,574.0000
2023-04-03T00:51:54.759Z,571.0000
2023-04-03T00:52:57.057Z,574.0000
2023-04-03T00:53:59.296Z,576.0000
2023-04-03T00:55:01.713Z,577.0000
2023-04-03T00:56:03.854Z,578.0000
2023-04-03T00:57:04.037Z,575.0000
2023-04-03T00:58:06.295Z,573.0000
2023-04-03T00:59:08.616Z,572.0000
2023-04-03T01:00:10.967Z,572.0000
2023-04-03T01:01:13.285Z,574.0000
2023-04-03T01:02:15.559Z,570.0000
2023-04-03T01:03:15.663Z,569.0000
2023-04-03T01:04:17.944Z,568.0000
2023-04-03T01:05:20.244Z,567.0000
2023-04-03T01:06:22.493Z,570.0000
2023-04-03T01:07:24.794Z,571.0000
2023-04-03T01:08:27.068Z,569.0000
2023-04-03T01:09:27.236Z,568.0000
2023-04-03T01:10:28.516Z,570.0000
2023-04-03T01:10:29.652Z,570.0000
2023-04-03T01:12:29.905Z,573.0000
2023-04-03T01:13:32.244Z,573.0000
2023-04-03T01:14:32.440Z,573.0000
2023-04-03T01:15:34.794Z,571.0000
2023-04-03T01:16:37.115Z,571.0000
2023-04-03T01:17:39.351Z,570.0000
2023-04-03T01:18:41.615Z,569.0000
2023-04-03T01:19:43.953Z,571.0000
2023-04-03T01:20:44.278Z,571.0000
2023-04-03T01:21:46.506Z,570.0000
2023-04-03T01:22:48.850Z,570.0000
2023-04-03T01:23:51.207Z,571.0000
2023-04-03T01:24:53.548Z,569.0000
2023-04-03T01:25:53.870Z,572.0000
2023-04-03T01:26:56.060Z,569.0000
2023-04-03T01:27:58.425Z,568.0000
2023-04-03T01:29:00.773Z,568.0000
2023-04-03T01:30:03.115Z,563.0000
2023-04-03T01:31:05.460Z,563.0000
2023-04-03T01:32:05.587Z,562.0000
2023-04-03T01:33:07.971Z,566.0000
2023-04-03T01:34:10.219Z,567.0000
2023-04-03T01:35:12.517Z,566.0000
2023-04-03T01:36:14.922Z,564.0000
2023-04-03T01:37:17.250Z,556.0000
2023-04-03T01:38:17.426Z,563.0000
2023-04-03T01:39:19.776Z,563.0000
2023-04-03T01:40:22.106Z,565.0000
2023-04-03T01:41:24.443Z,566.0000
2023-04-03T01:42:26.751Z,558.0000
2023-04-03T01:43:26.948Z,558.0000
2023-04-03T01:44:29.253Z,562.0000
2023-04-03T01:45:31.632Z,561.0000
2023-04-03T01:46:34.033Z,565.0000
2023-04-03T01:47:36.261Z,567.0000
2023-04-03T01:48:36.431Z,568.0000
2023-04-03T01:49:38.774Z,573.0000
2023-04-03T01:50:41.045Z,578.0000
2023-04-03T01:51:43.424Z,582.0000
2023-04-03T01:52:45.668Z,581.0000
2023-04-03T01:53:45.874Z,582.0000
2023-04-03T01:54:48.227Z,580.0000
2023-04-03T01:55:50.573Z,580.0000
2023-04-03T01:56:52.961Z,581.0000
2023-04-03T01:57:55.272Z,581.0000
2023-04-03T01:58:55.446Z,583.0000
2023-04-03T01:59:57.835Z,584.0000
2023-04-03T02:01:00.267Z,583.0000
2023-04-03T02:02:02.757Z,587.0000
2023-04-03T02:03:04.915Z,586.0000
2023-04-03T02:04:05.142Z,582.0000
2023-04-03T02:05:07.480Z,585.0000
2023-04-03T02:06:10.913Z,586.0000
2023-04-03T02:07:12.225Z,586.0000
2023-04-03T02:08:14.491Z,582.0000
2023-04-03T02:09:14.685Z,581.0000
2023-04-03T02:10:17.035Z,581.0000
2023-04-03T02:11:19.400Z,582.0000
2023-04-03T02:12:21.910Z,583.0000
2023-04-03T02:13:24.154Z,586.0000
2023-04-03T02:14:24.384Z,585.0000
2023-04-03T02:15:26.681Z,586.0000
2023-04-03T02:16:29.072Z,583.0000
2023-04-03T02:17:31.546Z,581.0000
2023-04-03T02:18:33.727Z,582.0000
2023-04-03T02:19:33.880Z,581.0000
2023-04-03T02:20:36.599Z,582.0000
2023-04-03T02:21:38.561Z,585.0000
2023-04-03T02:22:40.904Z,587.0000
2023-04-03T02:23:43.213Z,588.0000
2023-04-03T02:24:43.424Z,590.0000
2023-04-03T02:25:45.771Z,588.0000
2023-04-03T02:26:48.117Z,588.0000
2023-04-03T02:27:50.546Z,590.0000
2023-04-03T02:28:52.826Z,588.0000
2023-04-03T02:29:53.001Z,584.0000
2023-04-03T02:30:55.398Z,585.0000
2023-04-03T02:31:57.734Z,584.0000
2023-04-03T02:33:00.216Z,584.0000
2023-04-03T02:34:02.469Z,587.0000
2023-04-03T02:35:02.686Z,586.0000
2023-04-03T02:36:05.087Z,590.0000
2023-04-03T02:37:07.419Z,589.0000
2023-04-03T02:38:09.792Z,586.0000
2023-04-03T02:39:10.051Z,585.0000
2023-04-03T02:40:12.382Z,586.0000
2023-04-03T02:41:14.721Z,584.0000
2023-04-03T02:42:17.015Z,583.0000
2023-04-03T02:43:19.492Z,579.0000
2023-04-03T02:44:19.562Z,579.0000
2023-04-03T02:45:21.879Z,580.0000
2023-04-03T02:46:24.219Z,576.0000
2023-04-03T02:47:26.604Z,574.0000
2023-04-03T02:48:29.033Z,577.0000
2023-04-03T02:49:31.243Z,573.0000
2023-04-03T02:50:31.461Z,575.0000
2023-04-03T02:51:33.843Z,578.0000
2023-04-03T02:52:36.234Z,575.0000
2023-04-03T02:53:38.637Z,572.0000
2023-04-03T02:54:38.792Z,569.0000
2023-04-03T02:55:41.090Z,573.0000
2023-04-03T02:56:43.429Z,570.0000
2023-04-03T02:57:45.820Z,569.0000
2023-04-03T02:58:48.280Z,569.0000
2023-04-03T02:59:48.336Z,570.0000
2023-04-03T03:00:50.676Z,570.0000
2023-04-03T03:01:53.071Z,572.0000
2023-04-03T03:02:55.403Z,571.0000
2023-04-03T03:03:57.815Z,570.0000
2023-04-03T03:04:57.921Z,569.0000
2023-04-03T03:06:00.160Z,574.0000
2023-04-03T03:07:02.483Z,572.0000
2023-04-03T03:08:04.822Z,572.0000
2023-04-03T03:09:07.253Z,574.0000
2023-04-03T03:10:07.349Z,571.0000
2023-04-03T03:11:09.648Z,569.0000
2023-04-03T03:12:11.942Z,568.0000
2023-04-03T03:13:14.244Z,569.0000
2023-04-03T03:14:16.704Z,570.0000
2023-04-03T03:15:18.865Z,568.0000
2023-04-03T03:16:19.106Z,569.0000
2023-04-03T03:17:21.388Z,569.0000
2023-04-03T03:18:23.743Z,570.0000
2023-04-03T03:19:26.115Z,574.0000
2023-04-03T03:20:28.413Z,577.0000
2023-04-03T03:21:30.755Z,583.0000
2023-04-03T03:22:31.865Z,582.0000
2023-04-03T03:23:33.160Z,585.0000
2023-04-03T03:24:35.485Z,589.0000
2023-04-03T03:25:38.194Z,586.0000
2023-04-03T03:26:40.093Z,587.0000
2023-04-03T03:27:42.403Z,590.0000
2023-04-03T03:28:42.598Z,589.0000
2023-04-03T03:29:44.936Z,591.0000
2023-04-03T03:30:47.249Z,591.0000
2023-04-03T03:31:49.711Z,594.0000
2023-04-03T03:32:51.964Z,594.0000
2023-04-03T03:33:54.224Z,596.0000
2023-04-03T03:34:54.567Z,596.0000
2023-04-03T03:35:56.809Z,596.0000
2023-04-03T03:36:59.133Z,599.0000
2023-04-03T03:38:01.466Z,603.0000
2023-04-03T03:39:01.672Z,607.0000
2023-04-03T03:40:04.055Z,609.0000
2023-04-03T03:41:06.505Z,613.0000
2023-04-03T03:42:08.681Z,614.0000
2023-04-03T03:43:11.014Z,616.0000
2023-04-03T03:44:11.219Z,616.0000
2023-04-03T03:45:13.678Z,618.0000
2023-04-03T03:46:15.888Z,615.0000
2023-04-03T03:47:18.193Z,619.0000
2023-04-03T03:48:20.520Z,619.0000
2023-04-03T03:49:22.791Z,621.0000
2023-04-03T03:50:23.062Z,621.0000
2023-04-03T03:51:25.169Z,620.0000
2023-04-03T03:52:27.472Z,624.0000
2023-04-03T03:53:29.784Z,623.0000
2023-04-03T03:54:32.050Z,623.0000
2023-04-03T03:55:34.761Z,622.0000
2023-04-03T03:56:36.644Z,623.0000
2023-04-03T03:57:36.839Z,624.0000
2023-04-03T03:58:39.140Z,626.0000
2023-04-03T03:59:41.461Z,629.0000
2023-04-03T04:00:43.858Z,627.0000
2023-04-03T04:01:46.095Z,633.0000
2023-04-03T04:02:48.412Z,636.0000
2023-04-03T04:03:48.619Z,637.0000
2023-04-03T04:04:50.784Z,638.0000
2023-04-03T04:05:53.246Z,641.0000
2023-04-03T04:06:55.417Z,640.0000
2023-04-03T04:07:57.758Z,640.0000
2023-04-03T04:09:00.049Z,639.0000
2023-04-03T04:10:02.382Z,541.0000
2023-04-03T04:11:04.719Z,455.0000
2023-04-03T04:12:07.124Z,450.0000
2023-04-03T04:13:09.541Z,466.0000
2023-04-03T04:14:09.799Z,474.0000
2023-04-03T04:15:12.188Z,479.0000
2023-04-03T04:16:14.637Z,484.0000
2023-04-03T04:17:16.919Z,488.0000
2023-04-03T04:18:19.292Z,501.0000
2023-04-03T04:19:19.487Z,538.0000
2023-04-03T04:20:21.847Z,554.0000
2023-04-03T04:21:24.327Z,560.0000
2023-04-03T04:22:26.509Z,567.0000
2023-04-03T04:23:28.847Z,570.0000
2023-04-03T04:24:29.046Z,569.0000
2023-04-03T04:25:31.378Z,569.0000
2023-04-03T04:26:33.812Z,572.0000
2023-04-03T04:27:35.988Z,572.0000
2023-04-03T04:28:38.365Z,572.0000
2023-04-03T04:29:38.560Z,576.0000
2023-04-03T04:30:40.921Z,572.0000
2023-04-03T04:31:43.221Z,574.0000
2023-04-03T04:32:47.698Z,576.0000
2023-04-03T04:33:47.813Z,575.0000
2023-04-03T04:34:48.020Z,574.0000
2023-04-03T04:35:50.369Z,576.0000
2023-04-03T04:36:52.828Z,574.0000
2023-04-03T04:37:54.911Z,572.0000
2023-04-03T04:38:57.233Z,572.0000
2023-04-03T04:39:59.541Z,570.0000
2023-04-03T04:40:59.718Z,570.0000
2023-04-03T04:42:02.036Z,572.0000
2023-04-03T04:43:04.348Z,575.0000
2023-04-03T04:44:06.642Z,576.0000
2023-04-03T04:45:08.961Z,577.0000
2023-04-03T04:46:11.288Z,575.0000
2023-04-03T04:47:13.608Z,579.0000
2023-04-03T04:48:15.788Z,576.0000
2023-04-03T04:49:18.035Z,579.0000
2023-04-03T04:50:20.249Z,580.0000
2023-04-03T04:51:22.518Z,582.0000
2023-04-03T04:52:24.920Z,580.0000
2023-04-03T04:53:27.041Z,582.0000
2023-04-03T04:54:29.312Z,582.0000
2023-04-03T04:55:29.412Z,585.0000
2023-04-03T04:56:31.647Z,583.0000
2023-04-03T04:57:34.178Z,580.0000
2023-04-03T04:58:36.260Z,582.0000
2023-04-03T04:59:38.593Z,583.0000
2023-04-03T05:00:40.815Z,588.0000
2023-04-03T05:01:43.228Z,590.0000
2023-04-03T05:02:45.405Z,592.0000
2023-04-03T05:03:45.593Z,593.0000
2023-04-03T05:04:48.008Z,592.0000
2023-04-03T05:05:50.271Z,585.0000
2023-04-03T05:06:52.619Z,585.0000
2023-04-03T05:07:55.048Z,593.0000
2023-04-03T05:08:57.289Z,593.0000
2023-04-03T05:09:57.413Z,593.0000
2023-04-03T05:10:59.671Z,591.0000
2023-04-03T05:11:59.724Z,591.0000
2023-04-03T05:13:01.929Z,590.0000
2023-04-03T05:14:04.094Z,588.0000
2023-04-03T05:15:06.326Z,587.0000
2023-04-03T05:16:08.533Z,587.0000
2023-04-03T05:17:10.772Z,587.0000
2023-04-03T05:18:13.065Z,588.0000
2023-04-03T05:19:15.179Z,588.0000
2023-04-03T05:20:17.377Z,590.0000
2023-04-03T05:21:19.581Z,589.0000
2023-04-03T05:22:21.837Z,590.0000
2023-04-03T05:23:24.145Z,591.0000
2023-04-03T05:24:26.358Z,586.0000
2023-04-03T05:25:28.624Z,589.0000
2023-04-03T05:26:30.924Z,587.0000
2023-04-03T05:27:33.261Z,592.0000
2023-04-03T05:28:35.743Z,594.0000
2023-04-03T05:29:35.832Z,594.0000
2023-04-03T05:30:38.179Z,593.0000
2023-04-03T05:31:40.575Z,592.0000
2023-04-03T05:32:42.907Z,593.0000
2023-04-03T05:33:43.187Z,590.0000
2023-04-03T05:34:45.444Z,565.0000
2023-04-03T05:35:47.810Z,568.0000
2023-04-03T05:36:50.147Z,570.0000
2023-04-03T05:37:52.479Z,573.0000
2023-04-03T05:38:52.706Z,574.0000
2023-04-03T05:39:54.955Z,573.0000
2023-04-03T05:40:57.264Z,572.0000
2023-04-03T05:41:59.551Z,575.0000
2023-04-03T05:43:01.873Z,574.0000
2023-04-03T05:44:04.293Z,575.0000
2023-04-03T05:45:06.572Z,583.0000
2023-04-03T05:46:06.892Z,586.0000
2023-04-03T05:47:09.002Z,584.0000
2023-04-03T05:48:11.376Z,587.0000
2023-04-03T05:49:13.733Z,581.0000
2023-04-03T05:51:24.714Z,570.0000
2023-04-03T05:52:26.937Z,569.0000
2023-04-03T05:53:29.216Z,567.0000
2023-04-03T05:54:31.528Z,565.0000
2023-04-03T05:55:31.588Z,562.0000
2023-04-03T05:56:33.857Z,564.0000
2023-04-03T05:57:36.156Z,563.0000
2023-04-03T05:58:38.507Z,561.0000
2023-04-03T06:00:56.206Z,519.0000
2023-04-03T06:01:56.223Z,519.0000
2023-04-03T06:02:58.591Z,515.0000
2023-04-03T06:04:01.049Z,518.0000
2023-04-03T06:05:03.308Z,523.0000
2023-04-03T06:06:05.718Z,532.0000
2023-04-03T06:07:05.854Z,547.0000
2023-04-03T06:08:08.241Z,559.0000
2023-04-03T06:09:10.622Z,570.0000
2023-04-03T06:10:13.059Z,595.0000
2023-04-03T06:11:13.388Z,585.0000
2023-04-03T06:12:15.640Z,588.0000
2023-04-03T06:13:18.008Z,585.0000
2023-04-03T06:14:20.406Z,569.0000
2023-04-03T06:15:20.649Z,495.0000
2023-04-03T06:16:23.151Z,494.0000
2023-04-03T06:17:25.500Z,481.0000
2023-04-03T06:19:32.483Z,503.0000
2023-04-03T06:20:34.766Z,515.0000
2023-04-03T06:21:37.264Z,515.0000
2023-04-03T06:22:39.485Z,513.0000
2023-04-03T06:23:41.834Z,512.0000
2023-04-03T06:24:41.987Z,517.0000
2023-04-03T06:25:44.324Z,527.0000
2023-04-03T06:26:46.695Z,554.0000
2023-04-03T06:27:48.940Z,558.0000
2023-04-03T06:28:51.245Z,567.0000
2023-04-03T06:29:53.503Z,572.0000
2023-04-03T06:30:53.653Z,571.0000
2023-04-03T06:31:56.030Z,579.0000
2023-04-03T06:32:58.221Z,572.0000
2023-04-03T06:34:00.507Z,545.0000
2023-04-03T06:35:02.749Z,539.0000
2023-04-03T06:36:05.088Z,530.0000
2023-04-03T06:37:07.396Z,534.0000
2023-04-03T06:38:07.441Z,544.0000
2023-04-03T06:39:09.747Z,558.0000
2023-04-03T06:40:12.054Z,598.0000
2023-04-03T06:41:14.356Z,537.0000
2023-04-03T06:42:16.685Z,511.0000
2023-04-03T06:43:16.884Z,496.0000
2023-04-03T06:44:17.156Z,447.0000
2023-04-03T06:45:19.579Z,493.0000
2023-04-03T06:46:22.145Z,484.0000
2023-04-03T06:47:24.713Z,481.0000
2023-04-03T06:48:24.866Z,488.0000
2023-04-03T06:49:27.285Z,502.0000
2023-04-03T06:50:29.705Z,504.0000
2023-04-03T06:51:30.068Z,512.0000
2023-04-03T06:52:32.436Z,509.0000
2023-04-03T06:53:32.719Z,512.0000
2023-04-03T06:54:35.147Z,516.0000
2023-04-03T06:55:35.372Z,519.0000
2023-04-03T06:56:37.821Z,507.0000
2023-04-03T06:57:40.230Z,487.0000
2023-04-03T06:58:40.364Z,501.0000
2023-04-03T06:59:42.764Z,477.0000
2023-04-03T07:00:45.125Z,477.0000
2023-04-03T07:01:47.693Z,479.0000
2023-04-03T07:02:48.121Z,485.0000
2023-04-03T07:03:50.210Z,493.0000
2023-04-03T07:04:52.691Z,503.0000
2023-04-03T07:05:54.911Z,500.0000
2023-04-03T07:06:55.130Z,506.0000
2023-04-03T07:07:57.585Z,401.0000
2023-04-03T07:08:59.964Z,475.0000
2023-04-03T07:10:02.414Z,478.0000
2023-04-03T07:11:02.694Z,431.0000
2023-04-03T07:12:05.120Z,510.0000
2023-04-03T07:13:07.532Z,474.0000
2023-04-03T07:14:09.978Z,447.0000
2023-04-03T07:15:12.450Z,451.0000
2023-04-03T07:16:14.969Z,460.0000
2023-04-03T07:17:17.367Z,476.0000
2023-04-03T07:18:17.752Z,485.0000
2023-04-03T07:19:20.043Z,505.0000
2023-04-03T07:20:22.514Z,500.0000
2023-04-03T07:21:24.906Z,506.0000
2023-04-03T07:22:25.172Z,504.0000
2023-04-03T07:23:27.681Z,506.0000
2023-04-03T07:24:29.980Z,506.0000
2023-04-03T07:25:32.351Z,522.0000
2023-04-03T07:26:32.614Z,518.0000
2023-04-03T07:27:34.997Z,523.0000
2023-04-03T07:28:37.480Z,528.0000
2023-04-03T07:29:39.703Z,530.0000
2023-04-03T07:30:39.932Z,544.0000
2023-04-03T07:31:42.373Z,456.0000
2023-04-03T07:32:44.890Z,443.0000
2023-04-03T07:33:47.141Z,490.0000
2023-04-03T07:34:49.472Z,449.0000
2023-04-03T07:35:51.909Z,476.0000
2023-04-03T07:36:54.347Z,482.0000
2023-04-03T07:37:54.585Z,483.0000
2023-04-03T07:38:57.049Z,489.0000
2023-04-03T07:39:59.451Z,474.0000
2023-04-03T07:41:01.958Z,470.0000
2023-04-03T07:42:02.293Z,474.0000
2023-04-03T07:43:04.905Z,474.0000
2023-04-03T07:44:05.323Z,453.0000
2023-04-03T07:45:07.866Z,443.0000
2023-04-03T07:46:10.472Z,452.0000
2023-04-03T07:47:10.810Z,453.0000
2023-04-03T07:48:13.338Z,458.0000
2023-04-03T07:49:13.819Z,462.0000
2023-04-03T07:50:16.206Z,470.0000
2023-04-03T07:51:18.758Z,483.0000
2023-04-03T07:52:19.053Z,512.0000
2023-04-03T07:53:21.503Z,539.0000
2023-04-03T07:54:24.090Z,531.0000
2023-04-03T07:55:24.285Z,497.0000
2023-04-03T07:56:26.746Z,490.0000
2023-04-03T07:57:29.247Z,483.0000
2023-04-03T07:58:31.662Z,482.0000
2023-04-03T07:59:31.993Z,476.0000
2023-04-03T08:00:34.386Z,474.0000
2023-04-03T08:01:36.856Z,478.0000
2023-04-03T08:02:37.188Z,475.0000
2023-04-03T08:03:39.656Z,481.0000
2023-04-03T08:04:42.019Z,501.0000
2023-04-03T08:05:42.304Z,514.0000
2023-04-03T08:06:46.854Z,525.0000
2023-04-03T08:07:44.830Z,527.0000
2023-04-03T08:08:47.184Z,528.0000
2023-04-03T08:09:49.596Z,531.0000
2023-04-03T08:10:51.907Z,531.0000
2023-04-03T08:11:54.334Z,530.0000
2023-04-03T08:12:54.505Z,530.0000
2023-04-03T08:13:56.891Z,531.0000
2023-04-03T08:14:59.369Z,532.0000
2023-04-03T08:16:01.573Z,530.0000
2023-04-03T08:17:03.940Z,528.0000
2023-04-03T08:18:04.086Z,528.0000
2023-04-03T08:19:09.590Z,531.0000
2023-04-03T08:20:08.769Z,532.0000
2023-04-03T08:21:11.014Z,533.0000
2023-04-03T08:22:13.318Z,531.0000
2023-04-03T08:23:15.899Z,532.0000
2023-04-03T08:24:18.019Z,531.0000
2023-04-03T08:25:20.487Z,535.0000
2023-04-03T08:26:20.578Z,536.0000
2023-04-03T08:27:22.926Z,538.0000
2023-04-03T08:28:25.416Z,541.0000
2023-04-03T08:29:27.741Z,539.0000
2023-04-03T08:30:28.006Z,536.0000
2023-04-03T08:31:30.300Z,536.0000
2023-04-03T08:32:32.674Z,535.0000
2023-04-03T08:33:35.049Z,536.0000
2023-04-03T08:34:37.336Z,536.0000
2023-04-03T08:35:38.196Z,537.0000
2023-04-03T08:36:39.969Z,537.0000
2023-04-03T08:37:42.379Z,538.0000
2023-04-03T08:38:44.776Z,538.0000
2023-04-03T08:39:45.030Z,538.0000
2023-04-03T08:40:47.532Z,535.0000
2023-04-03T08:41:49.793Z,534.0000
2023-04-03T08:42:52.148Z,529.0000
2023-04-03T08:43:52.395Z,530.0000
2023-04-03T08:44:54.883Z,532.0000
2023-04-03T08:45:57.311Z,529.0000
2023-04-03T08:46:59.494Z,531.0000
2023-04-03T08:48:01.937Z,529.0000
2023-04-03T08:49:02.130Z,524.0000
2023-04-03T08:50:04.502Z,526.0000
2023-04-03T08:51:10.887Z,527.0000
2023-04-03T08:52:09.336Z,525.0000
2023-04-03T08:53:09.546Z,526.0000
2023-04-03T08:54:11.900Z,526.0000
2023-04-03T08:55:14.257Z,528.0000
2023-04-03T08:56:16.689Z,527.0000
2023-04-03T08:57:16.965Z,526.0000
2023-04-03T08:58:19.285Z,525.0000
2023-04-03T08:59:21.673Z,521.0000
2023-04-03T09:00:24.175Z,520.0000
2023-04-03T09:01:24.319Z,519.0000
2023-04-03T09:02:26.617Z,519.0000
2023-04-03T09:03:28.920Z,521.0000
2023-04-03T09:04:31.291Z,517.0000
2023-04-03T09:05:31.541Z,517.0000
2023-04-03T09:06:33.981Z,516.0000
2023-04-03T09:07:36.288Z,517.0000
2023-04-03T09:08:38.618Z,516.0000
2023-04-03T09:09:40.927Z,521.0000
2023-04-03T09:10:41.128Z,519.0000
2023-04-03T09:11:43.669Z,517.0000
2023-04-03T09:12:45.849Z,516.0000
2023-04-03T09:13:48.218Z,514.0000
2023-04-03T09:14:50.581Z,513.0000
2023-04-03T09:15:50.923Z,513.0000
2023-04-03T09:16:53.144Z,512.0000
2023-04-03T09:17:55.490Z,516.0000
2023-04-03T09:18:57.848Z,511.0000
2023-04-03T09:20:00.225Z,512.0000
2023-04-03T09:21:00.438Z,515.0000
2023-04-03T09:22:02.925Z,518.0000
2023-04-03T09:23:05.123Z,515.0000
2023-04-03T09:24:07.557Z,517.0000
2023-04-03T09:25:09.864Z,514.0000
2023-04-03T09:26:10.045Z,513.0000
2023-04-03T09:27:12.546Z,514.0000
2023-04-03T09:28:14.719Z,516.0000
2023-04-03T09:29:17.056Z,516.0000
2023-04-03T09:30:19.521Z,515.0000
2023-04-03T09:31:19.810Z,517.0000
2023-04-03T09:32:22.048Z,517.0000
2023-04-03T09:33:24.378Z,517.0000
2023-04-03T09:34:26.692Z,515.0000
2023-04-03T09:36:29.156Z,509.0000
2023-04-03T09:37:29.248Z,510.0000
2023-04-03T09:38:31.567Z,512.0000
2023-04-03T09:39:33.886Z,513.0000
2023-04-03T09:40:36.717Z,514.0000
2023-04-03T09:41:36.369Z,514.0000
2023-04-03T09:42:39.810Z,513.0000
2023-04-03T09:43:40.976Z,510.0000
2023-04-03T09:44:43.297Z,510.0000
2023-04-03T09:45:45.685Z,506.0000
2023-04-03T09:46:48.063Z,505.0000
2023-04-03T09:47:50.282Z,503.0000
2023-04-03T09:48:54.914Z,503.0000
2023-04-03T09:49:52.756Z,502.0000
2023-04-03T09:50:55.093Z,504.0000
2023-04-03T09:51:57.375Z,502.0000
2023-04-03T09:52:59.804Z,499.0000
2023-04-03T09:54:01.969Z,503.0000
2023-04-03T09:55:02.144Z,500.0000
2023-04-03T09:56:04.466Z,498.0000
2023-04-03T09:57:06.827Z,497.0000
2023-04-03T09:58:09.119Z,500.0000
2023-04-03T09:59:11.440Z,504.0000
2023-04-03T10:00:11.571Z,506.0000
2023-04-03T10:01:13.899Z,507.0000
2023-04-03T10:02:16.292Z,507.0000
2023-04-03T10:03:18.573Z,507.0000
2023-04-03T10:04:18.676Z,507.0000
2023-04-03T10:05:21.003Z,506.0000
2023-04-03T10:06:23.310Z,504.0000
2023-04-03T10:07:23.505Z,503.0000
2023-04-03T10:08:25.880Z,503.0000
2023-04-03T10:09:28.233Z,503.0000
2023-04-03T10:10:30.482Z,501.0000
2023-04-03T10:11:32.837Z,499.0000
2023-04-03T10:12:32.969Z,499.0000
2023-04-03T10:13:41.964Z,496.0000
2023-04-03T10:14:37.578Z,496.0000
2023-04-03T10:15:39.916Z,497.0000
2023-04-03T10:16:40.292Z,500.0000
2023-04-03T10:17:42.523Z,502.0000
2023-04-03T10:18:44.769Z,503.0000
2023-04-03T10:19:47.033Z,501.0000
2023-04-03T10:20:47.196Z,503.0000
2023-04-03T10:21:49.517Z,508.0000
2023-04-03T10:22:51.827Z,506.0000
2023-04-03T10:23:54.235Z,504.0000
2023-04-03T10:24:56.439Z,503.0000
2023-04-03T10:25:58.716Z,506.0000
2023-04-03T10:27:00.968Z,503.0000
2023-04-03T10:28:01.150Z,502.0000
2023-04-03T10:29:03.531Z,501.0000
2023-04-03T10:30:05.757Z,504.0000
2023-04-03T10:31:08.211Z,501.0000
2023-04-03T10:32:10.354Z,501.0000
2023-04-03T10:33:12.764Z,503.0000
2023-04-03T10:34:15.056Z,498.0000
2023-04-03T10:35:15.061Z,499.0000
2023-04-03T10:36:17.382Z,495.0000
2023-04-03T10:37:19.743Z,498.0000
2023-04-03T10:38:22.021Z,500.0000
2023-04-03T10:39:24.443Z,501.0000
2023-04-03T10:40:26.609Z,502.0000
2023-04-03T10:41:26.798Z,502.0000
2023-04-03T10:42:29.141Z,501.0000
2023-04-03T10:43:31.461Z,504.0000
2023-04-03T10:44:33.952Z,504.0000
2023-04-03T10:45:36.154Z,501.0000
2023-04-03T10:46:38.485Z,502.0000
2023-04-03T10:47:39.601Z,501.0000
2023-04-03T10:48:41.130Z,500.0000
2023-04-03T10:49:49.841Z,501.0000
2023-04-03T10:50:43.530Z,500.0000
2023-04-03T10:51:45.885Z,499.0000
2023-04-03T10:52:48.246Z,501.0000
2023-04-03T10:53:50.601Z,497.0000
2023-04-03T10:54:53.018Z,497.0000
2023-04-03T10:55:53.191Z,499.0000
2023-04-03T10:57:04.910Z,499.0000
2023-04-03T10:57:57.983Z,501.0000
2023-04-03T10:59:00.264Z,502.0000
2023-04-03T11:00:02.688Z,505.0000
2023-04-03T11:01:02.698Z,506.0000
2023-04-03T11:02:05.103Z,504.0000
2023-04-03T11:03:07.517Z,501.0000
2023-04-03T11:04:09.910Z,497.0000
2023-04-03T11:05:12.232Z,499.0000
2023-04-03T11:06:12.283Z,498.0000
2023-04-03T11:07:14.635Z,497.0000
2023-04-03T11:08:17.031Z,493.0000
2023-04-03T11:09:19.405Z,496.0000
2023-04-03T11:10:21.715Z,494.0000
2023-04-03T11:11:21.925Z,490.0000
2023-04-03T11:12:24.306Z,489.0000
2023-04-03T11:13:26.619Z,489.0000
2023-04-03T11:15:18.524Z,485.0000
2023-04-03T11:16:20.881Z,484.0000
2023-04-03T11:17:23.123Z,482.0000
2023-04-03T11:18:25.364Z,483.0000
2023-04-03T11:19:25.661Z,484.0000
2023-04-03T11:20:27.783Z,487.0000
2023-04-03T11:21:30.135Z,488.0000
2023-04-03T11:22:32.368Z,487.0000
2023-04-03T11:23:45.978Z,485.0000
2023-04-03T11:24:36.979Z,486.0000
2023-04-03T11:25:39.585Z,488.0000
2023-04-03T11:26:39.506Z,491.0000
2023-04-03T11:27:41.827Z,494.0000
2023-04-03T11:28:44.116Z,493.0000
2023-04-03T11:29:46.431Z,493.0000
2023-04-03T11:30:48.742Z,494.0000
2023-04-03T11:31:51.220Z,491.0000
2023-04-03T11:32:51.334Z,491.0000
2023-04-03T11:33:53.545Z,491.0000
2023-04-03T11:34:55.820Z,492.0000
2023-04-03T11:35:58.147Z,492.0000
2023-04-03T11:37:00.585Z,489.0000
2023-04-03T11:38:02.701Z,489.0000
2023-04-03T11:39:04.980Z,490.0000
2023-04-03T11:40:05.124Z,493.0000
2023-04-03T11:41:07.403Z,494.0000
2023-04-03T11:42:13.065Z,491.0000
2023-04-03T11:43:11.996Z,490.0000
2023-04-03T11:44:14.303Z,488.0000
2023-04-03T11:45:16.590Z,487.0000
2023-04-03T11:46:18.921Z,484.0000
2023-04-03T11:47:19.141Z,489.0000
2023-04-03T11:48:24.896Z,489.0000
2023-04-03T11:49:23.743Z,488.0000
2023-04-03T11:50:26.219Z,487.0000
2023-04-03T11:51:28.344Z,488.0000
2023-04-03T11:52:30.690Z,487.0000
2023-04-03T11:53:32.821Z,489.0000
2023-04-03T11:54:42.193Z,490.0000
2023-04-03T11:55:37.556Z,492.0000
2023-04-03T11:56:39.692Z,493.0000
2023-04-03T11:57:42.055Z,492.0000
2023-04-03T11:58:42.111Z,490.0000
2023-04-03T11:59:44.424Z,486.0000
2023-04-03T12:00:46.718Z,482.0000
2023-04-03T12:01:49.042Z,484.0000
2023-04-03T12:02:54.385Z,488.0000
2023-04-03T12:03:53.720Z,461.0000
2023-04-03T12:04:53.821Z,467.0000
2023-04-03T12:05:56.281Z,472.0000
2023-04-03T12:06:58.479Z,474.0000
2023-04-03T12:08:00.930Z,480.0000
2023-04-03T12:09:03.111Z,486.0000
2023-04-03T12:10:05.427Z,493.0000
2023-04-03T12:11:05.637Z,494.0000
2023-04-03T12:12:07.861Z,497.0000
2023-04-03T12:13:10.301Z,498.0000
2023-04-03T12:14:12.493Z,500.0000